sensor_id;sensor_type;location;lat;lon;timestamp;pressure;altitude;pressure_sealevel;temperature;humidity
65131;BME280;51709;54.912;8.316;2022-09-09T00:00:59;100665.69;;;13.75;80.19
65131;BME280;51709;54.912;8.316;2022-09-09T00:06:24;100665.63;;;13.76;80.17
65131;BME280;51709;54.912;8.316;2022-09-09T00:11:49;100657.06;;;13.76;80.34
65131;BME280;51709;54.912;8.316;2022-09-09T00:17:12;100659.50;;;13.79;80.33
65131;BME280;51709;54.912;8.316;2022-09-09T00:22:35;100656.91;;;13.80;80.09
65131;BME280;51709;54.912;8.316;2022-09-09T00:27:56;100649.09;;;13.82;80.12
65131;BME280;51709;54.912;8.316;2022-09-09T00:33:18;100650.78;;;13.83;80.17
65131;BME280;51709;54.912;8.316;2022-09-09T00:38:45;100640.38;;;13.84;80.13
65131;BME280;51709;54.912;8.316;2022-09-09T00:55:14;100629.72;;;13.94;80.08
65131;BME280;51709;54.912;8.316;2022-09-09T01:00:52;100626.22;;;13.95;80.14
65131;BME280;51709;54.912;8.316;2022-09-09T01:11:43;100633.84;;;13.98;80.10
65131;BME280;51709;54.912;8.316;2022-09-09T01:28:03;100620.25;;;13.94;80.10
65131;BME280;51709;54.912;8.316;2022-09-09T01:33:25;100616.94;;;13.91;80.34
65131;BME280;51709;54.912;8.316;2022-09-09T01:38:46;100611.00;;;13.89;80.44
65131;BME280;51709;54.912;8.316;2022-09-09T01:44:07;100615.31;;;13.88;80.29
65131;BME280;51709;54.912;8.316;2022-09-09T01:49:30;100605.94;;;13.85;80.36
65131;BME280;51709;54.912;8.316;2022-09-09T01:54:58;100611.91;;;13.87;80.50
65131;BME280;51709;54.912;8.316;2022-09-09T02:00:26;100612.56;;;13.93;80.35
65131;BME280;51709;54.912;8.316;2022-09-09T02:11:19;100620.88;;;13.99;80.06
65131;BME280;51709;54.912;8.316;2022-09-09T02:22:11;100619.06;;;14.03;80.05
65131;BME280;51709;54.912;8.316;2022-09-09T02:27:31;100613.75;;;14.06;79.97
65131;BME280;51709;54.912;8.316;2022-09-09T02:32:53;100617.06;;;14.10;80.00
65131;BME280;51709;54.912;8.316;2022-09-09T02:38:29;100623.84;;;14.12;79.89
65131;BME280;51709;54.912;8.316;2022-09-09T02:43:59;100609.16;;;14.14;79.89
65131;BME280;51709;54.912;8.316;2022-09-09T02:54:47;100601.22;;;14.19;79.91
65131;BME280;51709;54.912;8.316;2022-09-09T03:00:10;100593.41;;;14.21;80.00
65131;BME280;51709;54.912;8.316;2022-09-09T03:05:32;100607.28;;;14.18;79.84
65131;BME280;51709;54.912;8.316;2022-09-09T03:10:57;100601.41;;;14.14;80.08
65131;BME280;51709;54.912;8.316;2022-09-09T03:16:20;100610.94;;;14.12;80.20
65131;BME280;51709;54.912;8.316;2022-09-09T03:21:44;100604.88;;;14.13;80.15
65131;BME280;51709;54.912;8.316;2022-09-09T03:27:05;100606.41;;;14.17;80.06
65131;BME280;51709;54.912;8.316;2022-09-09T03:32:28;100605.41;;;14.22;79.95
65131;BME280;51709;54.912;8.316;2022-09-09T03:37:50;100613.94;;;14.24;79.90
65131;BME280;51709;54.912;8.316;2022-09-09T03:43:11;100607.81;;;14.26;80.06
65131;BME280;51709;54.912;8.316;2022-09-09T03:48:32;100600.78;;;14.30;79.85
65131;BME280;51709;54.912;8.316;2022-09-09T03:53:53;100607.63;;;14.31;79.96
65131;BME280;51709;54.912;8.316;2022-09-09T03:59:16;100610.97;;;14.33;79.71
65131;BME280;51709;54.912;8.316;2022-09-09T04:04:36;100606.72;;;14.32;79.85
65131;BME280;51709;54.912;8.316;2022-09-09T04:09:57;100596.38;;;14.32;79.80
65131;BME280;51709;54.912;8.316;2022-09-09T04:15:18;100599.94;;;14.29;80.11
65131;BME280;51709;54.912;8.316;2022-09-09T04:20:40;100599.94;;;14.29;80.26
65131;BME280;51709;54.912;8.316;2022-09-09T04:26:01;100600.03;;;14.28;80.07
65131;BME280;51709;54.912;8.316;2022-09-09T04:31:24;100608.66;;;14.27;80.28
65131;BME280;51709;54.912;8.316;2022-09-09T04:36:49;100606.91;;;14.27;80.13
65131;BME280;51709;54.912;8.316;2022-09-09T04:42:09;100601.81;;;14.26;80.42
65131;BME280;51709;54.912;8.316;2022-09-09T04:47:30;100606.06;;;14.27;80.34
65131;BME280;51709;54.912;8.316;2022-09-09T04:52:51;100610.97;;;14.33;80.34
65131;BME280;51709;54.912;8.316;2022-09-09T04:58:12;100607.44;;;14.36;80.14
65131;BME280;51709;54.912;8.316;2022-09-09T05:03:32;100615.00;;;14.40;80.38
65131;BME280;51709;54.912;8.316;2022-09-09T05:08:54;100618.31;;;14.44;80.05
65131;BME280;51709;54.912;8.316;2022-09-09T05:14:18;100613.91;;;14.46;80.12
65131;BME280;51709;54.912;8.316;2022-09-09T05:19:38;100608.59;;;14.49;80.05
65131;BME280;51709;54.912;8.316;2022-09-09T05:24:59;100616.53;;;14.44;80.38
65131;BME280;51709;54.912;8.316;2022-09-09T05:30:21;100629.72;;;14.38;80.44
65131;BME280;51709;54.912;8.316;2022-09-09T05:35:44;100627.25;;;14.35;80.81
65131;BME280;51709;54.912;8.316;2022-09-09T05:41:05;100634.88;;;14.38;80.71
65131;BME280;51709;54.912;8.316;2022-09-09T05:46:27;100643.53;;;14.37;80.60
65131;BME280;51709;54.912;8.316;2022-09-09T05:51:49;100647.97;;;14.33;80.98
65131;BME280;51709;54.912;8.316;2022-09-09T05:57:12;100651.19;;;14.39;80.72
65131;BME280;51709;54.912;8.316;2022-09-09T06:02:32;100657.16;;;14.41;80.63
65131;BME280;51709;54.912;8.316;2022-09-09T06:07:53;100653.28;;;14.51;80.39
65131;BME280;51709;54.912;8.316;2022-09-09T06:13:14;100659.13;;;14.56;80.59
65131;BME280;51709;54.912;8.316;2022-09-09T06:18:35;100654.91;;;14.76;80.14
65131;BME280;51709;54.912;8.316;2022-09-09T06:23:56;100653.00;;;15.00;79.64
65131;BME280;51709;54.912;8.316;2022-09-09T06:29:20;100664.38;;;15.17;79.24
65131;BME280;51709;54.912;8.316;2022-09-09T06:34:41;100665.00;;;15.43;78.79
65131;BME280;51709;54.912;8.316;2022-09-09T06:40:03;100661.31;;;15.67;78.14
65131;BME280;51709;54.912;8.316;2022-09-09T06:45:24;100663.19;;;16.02;77.68
65131;BME280;51709;54.912;8.316;2022-09-09T06:50:49;100661.22;;;16.26;77.09
65131;BME280;51709;54.912;8.316;2022-09-09T06:56:19;100679.06;;;16.13;76.70
65131;BME280;51709;54.912;8.316;2022-09-09T07:01:45;100672.94;;;15.97;77.82
65131;BME280;51709;54.912;8.316;2022-09-09T07:07:11;100681.88;;;15.90;78.34
65131;BME280;51709;54.912;8.316;2022-09-09T07:12:34;100691.28;;;15.71;78.31
65131;BME280;51709;54.912;8.316;2022-09-09T07:17:55;100695.69;;;15.50;79.01
65131;BME280;51709;54.912;8.316;2022-09-09T07:23:20;100691.06;;;15.38;79.84
65131;BME280;51709;54.912;8.316;2022-09-09T07:28:42;100686.47;;;15.83;79.26
65131;BME280;51709;54.912;8.316;2022-09-09T07:34:04;100689.97;;;16.20;77.75
65131;BME280;51709;54.912;8.316;2022-09-09T07:39:26;100687.41;;;16.01;77.98
65131;BME280;51709;54.912;8.316;2022-09-09T07:44:47;100701.69;;;15.91;78.67
65131;BME280;51709;54.912;8.316;2022-09-09T07:50:10;100696.59;;;15.89;78.81
65131;BME280;51709;54.912;8.316;2022-09-09T07:55:31;100703.97;;;15.78;79.05
65131;BME280;51709;54.912;8.316;2022-09-09T08:00:52;100701.69;;;15.91;78.96
65131;BME280;51709;54.912;8.316;2022-09-09T08:06:15;100699.88;;;16.12;78.69
65131;BME280;51709;54.912;8.316;2022-09-09T08:11:36;100722.25;;;16.13;78.77
65131;BME280;51709;54.912;8.316;2022-09-09T08:16:59;100719.88;;;16.27;78.52
65131;BME280;51709;54.912;8.316;2022-09-09T08:22:21;100721.69;;;16.25;78.62
65131;BME280;51709;54.912;8.316;2022-09-09T08:27:43;100728.66;;;16.42;78.25
65131;BME280;51709;54.912;8.316;2022-09-09T08:33:04;100731.91;;;16.65;78.21
65131;BME280;51709;54.912;8.316;2022-09-09T08:38:26;100735.13;;;17.05;76.97
65131;BME280;51709;54.912;8.316;2022-09-09T08:43:47;100744.44;;;17.09;76.93
65131;BME280;51709;54.912;8.316;2022-09-09T08:49:19;100753.75;;;17.14;76.74
65131;BME280;51709;54.912;8.316;2022-09-09T08:54:43;100757.81;;;16.83;78.10
65131;BME280;51709;54.912;8.316;2022-09-09T09:00:13;100755.72;;;17.08;78.16
65131;BME280;51709;54.912;8.316;2022-09-09T09:05:47;100763.53;;;17.93;75.57
65131;BME280;51709;54.912;8.316;2022-09-09T09:11:15;100767.25;;;18.37;75.03
65131;BME280;51709;54.912;8.316;2022-09-09T09:16:42;100760.84;;;19.65;71.14
65131;BME280;51709;54.912;8.316;2022-09-09T09:22:19;100763.16;;;20.95;67.80
65131;BME280;51709;54.912;8.316;2022-09-09T09:33:33;100766.50;;;22.62;64.05
65131;BME280;51709;54.912;8.316;2022-09-09T09:38:56;100768.00;;;24.15;60.16
65131;BME280;51709;54.912;8.316;2022-09-09T09:44:40;100763.44;;;24.73;58.82
65131;BME280;51709;54.912;8.316;2022-09-09T09:50:17;100762.59;;;25.15;58.28
65131;BME280;51709;54.912;8.316;2022-09-09T09:55:44;100766.78;;;25.48;57.64
65131;BME280;51709;54.912;8.316;2022-09-09T10:01:18;100768.16;;;25.43;57.93
65131;BME280;51709;54.912;8.316;2022-09-09T10:06:40;100774.56;;;24.54;60.82
65131;BME280;51709;54.912;8.316;2022-09-09T10:17:42;100778.00;;;26.52;55.20
65131;BME280;51709;54.912;8.316;2022-09-09T10:23:17;100788.44;;;25.62;57.02
65131;BME280;51709;54.912;8.316;2022-09-09T10:29:18;100779.47;;;23.69;62.50
65131;BME280;51709;54.912;8.316;2022-09-09T10:34:43;100789.19;;;22.86;65.14
65131;BME280;51709;54.912;8.316;2022-09-09T10:56:50;100795.53;;;19.65;73.10
65131;BME280;51709;54.912;8.316;2022-09-09T11:02:30;100815.75;;;20.47;70.60
65131;BME280;51709;54.912;8.316;2022-09-09T11:07:53;100810.78;;;22.15;64.97
65131;BME280;51709;54.912;8.316;2022-09-09T11:13:20;100820.16;;;22.68;63.12
65131;BME280;51709;54.912;8.316;2022-09-09T11:18:44;100810.53;;;23.39;60.95
65131;BME280;51709;54.912;8.316;2022-09-09T11:24:09;100818.56;;;24.94;57.21
65131;BME280;51709;54.912;8.316;2022-09-09T11:34:56;100827.59;;;23.09;61.35
65131;BME280;51709;54.912;8.316;2022-09-09T11:45:42;100844.25;;;22.10;64.61
65131;BME280;51709;54.912;8.316;2022-09-09T11:51:11;100838.13;;;21.19;67.12
65131;BME280;51709;54.912;8.316;2022-09-09T11:56:43;100845.69;;;20.69;68.23
65131;BME280;51709;54.912;8.316;2022-09-09T12:02:24;100849.22;;;20.11;69.77
65131;BME280;51709;54.912;8.316;2022-09-09T12:07:52;100848.56;;;19.79;70.34
65131;BME280;51709;54.912;8.316;2022-09-09T12:13:18;100850.75;;;21.12;66.37
65131;BME280;51709;54.912;8.316;2022-09-09T12:18:39;100852.69;;;23.12;61.03
65131;BME280;51709;54.912;8.316;2022-09-09T12:24:15;100841.53;;;25.87;52.85
65131;BME280;51709;54.912;8.316;2022-09-09T12:29:49;100861.13;;;27.33;50.91
65131;BME280;51709;54.912;8.316;2022-09-09T12:35:20;100848.75;;;25.94;52.63
65131;BME280;51709;54.912;8.316;2022-09-09T12:40:42;100851.97;;;23.46;59.61
65131;BME280;51709;54.912;8.316;2022-09-09T12:46:07;100856.72;;;22.56;62.38
65131;BME280;51709;54.912;8.316;2022-09-09T12:51:29;100851.91;;;23.81;59.07
65131;BME280;51709;54.912;8.316;2022-09-09T12:56:51;100849.34;;;24.59;56.50
65131;BME280;51709;54.912;8.316;2022-09-09T13:08:08;100849.91;;;24.74;55.62
65131;BME280;51709;54.912;8.316;2022-09-09T13:18:50;100839.34;;;24.42;57.00
65131;BME280;51709;54.912;8.316;2022-09-09T13:24:30;100839.47;;;24.40;56.87
65131;BME280;51709;54.912;8.316;2022-09-09T13:29:52;100836.75;;;24.86;55.96
65131;BME280;51709;54.912;8.316;2022-09-09T13:35:23;100846.25;;;25.19;55.05
65131;BME280;51709;54.912;8.316;2022-09-09T13:40:57;100842.41;;;24.58;56.21
65131;BME280;51709;54.912;8.316;2022-09-09T13:51:43;100862.47;;;22.86;61.06
65131;BME280;51709;54.912;8.316;2022-09-09T13:57:17;100856.91;;;21.90;63.39
65131;BME280;51709;54.912;8.316;2022-09-09T14:02:38;100850.03;;;21.63;63.78
65131;BME280;51709;54.912;8.316;2022-09-09T14:07:59;100854.53;;;21.87;62.91
65131;BME280;51709;54.912;8.316;2022-09-09T14:13:21;100859.03;;;21.85;62.45
65131;BME280;51709;54.912;8.316;2022-09-09T14:18:42;100853.81;;;21.85;62.12
65131;BME280;51709;54.912;8.316;2022-09-09T14:24:04;100863.63;;;21.94;61.86
65131;BME280;51709;54.912;8.316;2022-09-09T14:29:24;100864.31;;;22.09;61.39
65131;BME280;51709;54.912;8.316;2022-09-09T14:34:47;100861.41;;;22.01;61.54
65131;BME280;51709;54.912;8.316;2022-09-09T14:40:11;100861.44;;;21.62;62.57
65131;BME280;51709;54.912;8.316;2022-09-09T14:45:31;100851.91;;;21.61;62.13
65131;BME280;51709;54.912;8.316;2022-09-09T14:50:54;100854.13;;;21.80;61.36
65131;BME280;51709;54.912;8.316;2022-09-09T14:56:17;100850.06;;;22.26;60.12
65131;BME280;51709;54.912;8.316;2022-09-09T15:01:37;100856.13;;;23.37;57.01
65131;BME280;51709;54.912;8.316;2022-09-09T15:06:58;100858.53;;;23.51;57.17
65131;BME280;51709;54.912;8.316;2022-09-09T15:12:18;100855.53;;;23.33;57.81
65131;BME280;51709;54.912;8.316;2022-09-09T15:17:39;100859.88;;;23.57;57.51
65131;BME280;51709;54.912;8.316;2022-09-09T15:22:59;100845.59;;;23.95;56.67
65131;BME280;51709;54.912;8.316;2022-09-09T15:28:20;100847.63;;;24.03;56.11
65131;BME280;51709;54.912;8.316;2022-09-09T15:33:40;100851.06;;;23.69;57.50
65131;BME280;51709;54.912;8.316;2022-09-09T15:39:02;100841.13;;;23.28;58.31
65131;BME280;51709;54.912;8.316;2022-09-09T15:44:23;100839.22;;;22.57;59.95
65131;BME280;51709;54.912;8.316;2022-09-09T15:49:45;100844.78;;;22.02;61.61
65131;BME280;51709;54.912;8.316;2022-09-09T15:55:06;100848.34;;;21.88;61.72
65131;BME280;51709;54.912;8.316;2022-09-09T16:00:26;100844.34;;;22.58;59.87
65131;BME280;51709;54.912;8.316;2022-09-09T16:05:50;100849.47;;;22.60;59.19
65131;BME280;51709;54.912;8.316;2022-09-09T16:16:31;100855.38;;;22.51;59.61
65131;BME280;51709;54.912;8.316;2022-09-09T16:21:52;100877.78;;;22.42;59.84
65131;BME280;51709;54.912;8.316;2022-09-09T16:27:12;100868.09;;;21.92;60.64
65131;BME280;51709;54.912;8.316;2022-09-09T16:32:34;100866.84;;;21.59;61.59
65131;BME280;51709;54.912;8.316;2022-09-09T16:37:55;100861.38;;;21.49;62.07
65131;BME280;51709;54.912;8.316;2022-09-09T16:57:49;100874.38;;;21.23;62.28
65131;BME280;51709;54.912;8.316;2022-09-09T17:03:12;100876.06;;;20.97;62.82
65131;BME280;51709;54.912;8.316;2022-09-09T17:08:33;100876.97;;;20.83;63.09
65131;BME280;51709;54.912;8.316;2022-09-09T17:13:54;100878.97;;;20.92;62.90
65131;BME280;51709;54.912;8.316;2022-09-09T17:19:15;100878.31;;;21.03;62.60
65131;BME280;51709;54.912;8.316;2022-09-09T17:24:35;100884.50;;;20.88;62.69
65131;BME280;51709;54.912;8.316;2022-09-09T17:29:58;100900.00;;;20.62;63.28
65131;BME280;51709;54.912;8.316;2022-09-09T17:35:19;100906.53;;;20.26;64.44
65131;BME280;51709;54.912;8.316;2022-09-09T17:40:39;100916.88;;;19.98;64.89
65131;BME280;51709;54.912;8.316;2022-09-09T17:46:10;100920.88;;;19.74;65.29
65131;BME280;51709;54.912;8.316;2022-09-09T17:51:31;100947.13;;;19.40;65.98
65131;BME280;51709;54.912;8.316;2022-09-09T17:56:52;100943.28;;;19.15;66.40
65131;BME280;51709;54.912;8.316;2022-09-09T18:02:13;100934.09;;;18.92;66.86
65131;BME280;51709;54.912;8.316;2022-09-09T18:07:33;100929.97;;;18.72;67.27
65131;BME280;51709;54.912;8.316;2022-09-09T18:12:54;100927.72;;;18.50;67.64
65131;BME280;51709;54.912;8.316;2022-09-09T18:18:15;100935.63;;;18.30;68.09
65131;BME280;51709;54.912;8.316;2022-09-09T18:23:37;100938.34;;;18.11;68.34
65131;BME280;51709;54.912;8.316;2022-09-09T18:28:58;100937.81;;;17.87;68.54
65131;BME280;51709;54.912;8.316;2022-09-09T18:34:20;100947.13;;;17.74;68.90
65131;BME280;51709;54.912;8.316;2022-09-09T18:39:42;100940.00;;;17.60;68.88
65131;BME280;51709;54.912;8.316;2022-09-09T18:45:02;100944.59;;;17.54;68.62
65131;BME280;51709;54.912;8.316;2022-09-09T18:50:22;100945.78;;;17.47;68.64
65131;BME280;51709;54.912;8.316;2022-09-09T18:55:43;100944.41;;;17.40;68.85
65131;BME280;51709;54.912;8.316;2022-09-09T19:01:04;100938.75;;;17.32;69.00
65131;BME280;51709;54.912;8.316;2022-09-09T19:06:27;100932.16;;;17.24;68.71
65131;BME280;51709;54.912;8.316;2022-09-09T19:11:49;100936.09;;;17.14;68.71
65131;BME280;51709;54.912;8.316;2022-09-09T19:17:10;100944.41;;;17.03;68.94
65131;BME280;51709;54.912;8.316;2022-09-09T19:22:32;100935.34;;;16.93;68.96
65131;BME280;51709;54.912;8.316;2022-09-09T19:27:54;100947.09;;;16.81;69.23
65131;BME280;51709;54.912;8.316;2022-09-09T19:33:14;100952.97;;;16.66;69.52
65131;BME280;51709;54.912;8.316;2022-09-09T19:38:35;100951.00;;;16.52;69.88
65131;BME280;51709;54.912;8.316;2022-09-09T19:43:56;100949.03;;;16.38;70.11
65131;BME280;51709;54.912;8.316;2022-09-09T19:49:21;100953.06;;;16.24;70.03
65131;BME280;51709;54.912;8.316;2022-09-09T19:54:41;100964.91;;;16.09;70.46
65131;BME280;51709;54.912;8.316;2022-09-09T20:00:02;100964.56;;;15.96;70.73
65131;BME280;51709;54.912;8.316;2022-09-09T20:05:31;100970.28;;;15.82;70.82
65131;BME280;51709;54.912;8.316;2022-09-09T20:10:52;100969.03;;;15.70;71.18
65131;BME280;51709;54.912;8.316;2022-09-09T20:16:14;100963.63;;;15.54;71.23
65131;BME280;51709;54.912;8.316;2022-09-09T20:21:39;100973.53;;;15.45;71.35
65131;BME280;51709;54.912;8.316;2022-09-09T20:27:06;100972.94;;;15.38;71.25
65131;BME280;51709;54.912;8.316;2022-09-09T20:32:27;100977.53;;;15.30;71.55
65131;BME280;51709;54.912;8.316;2022-09-09T20:37:48;100981.44;;;15.18;71.50
65131;BME280;51709;54.912;8.316;2022-09-09T20:43:09;100986.53;;;14.97;71.99
65131;BME280;51709;54.912;8.316;2022-09-09T20:48:32;100994.75;;;14.85;72.36
65131;BME280;51709;54.912;8.316;2022-09-09T20:53:54;100995.97;;;14.74;72.46
65131;BME280;51709;54.912;8.316;2022-09-09T20:59:17;100996.22;;;14.67;72.46
65131;BME280;51709;54.912;8.316;2022-09-09T21:04:39;100993.91;;;14.59;72.64
65131;BME280;51709;54.912;8.316;2022-09-09T21:09:59;100995.91;;;14.51;72.44
65131;BME280;51709;54.912;8.316;2022-09-09T21:15:21;100997.88;;;14.44;72.56
65131;BME280;51709;54.912;8.316;2022-09-09T21:20:41;100988.69;;;14.35;72.65
65131;BME280;51709;54.912;8.316;2022-09-09T21:26:03;100995.06;;;14.25;72.85
65131;BME280;51709;54.912;8.316;2022-09-09T21:31:24;101006.38;;;14.21;72.90
65131;BME280;51709;54.912;8.316;2022-09-09T21:36:47;101000.56;;;14.14;73.14
65131;BME280;51709;54.912;8.316;2022-09-09T21:42:08;100998.16;;;14.09;72.95
65131;BME280;51709;54.912;8.316;2022-09-09T21:47:29;101000.94;;;14.03;73.13
65131;BME280;51709;54.912;8.316;2022-09-09T21:52:51;101001.94;;;13.99;73.29
65131;BME280;51709;54.912;8.316;2022-09-09T21:58:13;101001.34;;;13.91;73.28
65131;BME280;51709;54.912;8.316;2022-09-09T22:03:34;101006.69;;;13.84;73.31
65131;BME280;51709;54.912;8.316;2022-09-09T22:08:56;101018.94;;;13.78;73.35
65131;BME280;51709;54.912;8.316;2022-09-09T22:14:18;101021.66;;;13.73;73.55
65131;BME280;51709;54.912;8.316;2022-09-09T22:19:38;101029.53;;;13.70;73.74
65131;BME280;51709;54.912;8.316;2022-09-09T22:25:00;101029.63;;;13.67;73.55
65131;BME280;51709;54.912;8.316;2022-09-09T22:30:20;101024.44;;;13.67;73.69
65131;BME280;51709;54.912;8.316;2022-09-09T22:35:41;101033.03;;;13.67;73.50
65131;BME280;51709;54.912;8.316;2022-09-09T22:41:02;101032.84;;;13.74;73.43
65131;BME280;51709;54.912;8.316;2022-09-09T22:46:23;101024.91;;;13.80;73.40
65131;BME280;51709;54.912;8.316;2022-09-09T22:51:44;101034.16;;;13.87;73.20
65131;BME280;51709;54.912;8.316;2022-09-09T22:57:04;101038.28;;;13.93;73.08
65131;BME280;51709;54.912;8.316;2022-09-09T23:02:27;101044.16;;;13.96;72.99
65131;BME280;51709;54.912;8.316;2022-09-09T23:07:48;101033.72;;;13.99;73.15
65131;BME280;51709;54.912;8.316;2022-09-09T23:13:09;101044.03;;;14.01;73.03
65131;BME280;51709;54.912;8.316;2022-09-09T23:18:29;101031.94;;;14.01;72.94
65131;BME280;51709;54.912;8.316;2022-09-09T23:23:54;101028.56;;;13.99;73.06
65131;BME280;51709;54.912;8.316;2022-09-09T23:29:15;101035.53;;;13.97;73.21
65131;BME280;51709;54.912;8.316;2022-09-09T23:34:35;101030.53;;;13.93;73.41
65131;BME280;51709;54.912;8.316;2022-09-09T23:39:57;101034.16;;;13.87;73.56
65131;BME280;51709;54.912;8.316;2022-09-09T23:45:17;101033.38;;;13.83;73.68
65131;BME280;51709;54.912;8.316;2022-09-09T23:50:38;101016.34;;;13.79;73.84
65131;BME280;51709;54.912;8.316;2022-09-09T23:55:58;101019.06;;;13.75;74.02
